sensor_id;sensor_type;location;lat;lon;timestamp;P1;durP1;ratioP1;P2;durP2;ratioP2
49900;SDS011;35789;48.414;12.768;2023-07-20T00:00:00;7.4;;;2.7;;
49900;SDS011;35789;48.414;12.768;2023-07-20T00:05:00;7.4;;;2.7;;
49900;SDS011;35789;48.414;12.768;2023-07-20T00:10:00;6.1;;;3.2;;
49900;SDS011;35789;48.414;12.768;2023-07-20T00:15:00;6.1;;;3.2;;
49900;SDS011;35789;48.414;12.768;2023-07-20T00:20:00;6.1;;;3.2;;
49900;SDS011;35789;48.414;12.768;2023-07-20T00:25:00;6.1;;;3.2;;
49900;SDS011;35789;48.414;12.768;2023-07-20T00:30:00;6.1;;;3.2;;
49900;SDS011;35789;48.414;12.768;2023-07-20T00:35:00;6.1;;;3.2;;
49900;SDS011;35789;48.414;12.768;2023-07-20T00:40:00;6.5;;;2.6;;
49900;SDS011;35789;48.414;12.768;2023-07-20T00:45:00;6.5;;;2.6;;
49900;SDS011;35789;48.414;12.768;2023-07-20T00:50:00;6.5;;;2.6;;
49900;SDS011;35789;48.414;12.768;2023-07-20T00:55:00;6.5;;;2.6;;
49900;SDS011;35789;48.414;12.768;2023-07-20T01:00:00;6.5;;;2.6;;
49900;SDS011;35789;48.414;12.768;2023-07-20T01:05:00;6.5;;;2.6;;
49900;SDS011;35789;48.414;12.768;2023-07-20T01:10:04;5.9;;;2.6;;
49900;SDS011;35789;48.414;12.768;2023-07-20T01:15:00;5.9;;;2.6;;
49900;SDS011;35789;48.414;12.768;2023-07-20T01:20:00;5.9;;;2.6;;
49900;SDS011;35789;48.414;12.768;2023-07-20T01:25:12;5.9;;;2.6;;
49900;SDS011;35789;48.414;12.768;2023-07-20T01:30:10;5.9;;;2.6;;
49900;SDS011;35789;48.414;12.768;2023-07-20T01:35:01;5.9;;;2.6;;
49900;SDS011;35789;48.414;12.768;2023-07-20T01:40:00;5.4;;;2.6;;
49900;SDS011;35789;48.414;12.768;2023-07-20T01:45:00;5.4;;;2.6;;
49900;SDS011;35789;48.414;12.768;2023-07-20T01:50:00;5.4;;;2.6;;
49900;SDS011;35789;48.414;12.768;2023-07-20T01:55:00;5.4;;;2.6;;
49900;SDS011;35789;48.414;12.768;2023-07-20T02:00:00;5.4;;;2.6;;
49900;SDS011;35789;48.414;12.768;2023-07-20T02:05:00;5.4;;;2.6;;
49900;SDS011;35789;48.414;12.768;2023-07-20T02:10:00;5.8;;;3.1;;
49900;SDS011;35789;48.414;12.768;2023-07-20T02:15:00;5.8;;;3.1;;
49900;SDS011;35789;48.414;12.768;2023-07-20T02:20:00;5.8;;;3.1;;
49900;SDS011;35789;48.414;12.768;2023-07-20T02:25:00;5.8;;;3.1;;
49900;SDS011;35789;48.414;12.768;2023-07-20T02:30:00;5.8;;;3.1;;
49900;SDS011;35789;48.414;12.768;2023-07-20T02:35:00;5.8;;;3.1;;
49900;SDS011;35789;48.414;12.768;2023-07-20T02:40:00;6.2;;;2.8;;
49900;SDS011;35789;48.414;12.768;2023-07-20T02:45:01;6.2;;;2.8;;
49900;SDS011;35789;48.414;12.768;2023-07-20T02:50:00;6.2;;;2.8;;
49900;SDS011;35789;48.414;12.768;2023-07-20T02:55:00;6.2;;;2.8;;
49900;SDS011;35789;48.414;12.768;2023-07-20T03:00:00;6.2;;;2.8;;
49900;SDS011;35789;48.414;12.768;2023-07-20T03:05:00;6.2;;;2.8;;
49900;SDS011;35789;48.414;12.768;2023-07-20T03:10:00;8.1;;;3.7;;
49900;SDS011;35789;48.414;12.768;2023-07-20T03:15:00;8.1;;;3.7;;
49900;SDS011;35789;48.414;12.768;2023-07-20T03:20:00;8.1;;;3.7;;
49900;SDS011;35789;48.414;12.768;2023-07-20T03:25:00;8.1;;;3.7;;
49900;SDS011;35789;48.414;12.768;2023-07-20T03:30:00;8.1;;;3.7;;
49900;SDS011;35789;48.414;12.768;2023-07-20T03:35:00;8.1;;;3.7;;
49900;SDS011;35789;48.414;12.768;2023-07-20T03:40:00;8.5;;;4.0;;
49900;SDS011;35789;48.414;12.768;2023-07-20T03:45:00;8.5;;;4.0;;
49900;SDS011;35789;48.414;12.768;2023-07-20T03:50:00;8.5;;;4.0;;
49900;SDS011;35789;48.414;12.768;2023-07-20T03:55:00;8.5;;;4.0;;
49900;SDS011;35789;48.414;12.768;2023-07-20T04:00:00;8.5;;;4.0;;
49900;SDS011;35789;48.414;12.768;2023-07-20T04:05:00;8.5;;;4.0;;
49900;SDS011;35789;48.414;12.768;2023-07-20T04:10:00;6.4;;;3.5;;
49900;SDS011;35789;48.414;12.768;2023-07-20T04:15:00;6.4;;;3.5;;
49900;SDS011;35789;48.414;12.768;2023-07-20T04:20:00;6.4;;;3.5;;
49900;SDS011;35789;48.414;12.768;2023-07-20T04:25:00;6.4;;;3.5;;
49900;SDS011;35789;48.414;12.768;2023-07-20T04:30:00;6.4;;;3.5;;
49900;SDS011;35789;48.414;12.768;2023-07-20T04:35:00;6.4;;;3.5;;
49900;SDS011;35789;48.414;12.768;2023-07-20T04:40:00;8.4;;;3.5;;
49900;SDS011;35789;48.414;12.768;2023-07-20T04:45:00;8.4;;;3.5;;
49900;SDS011;35789;48.414;12.768;2023-07-20T04:50:00;8.4;;;3.5;;
49900;SDS011;35789;48.414;12.768;2023-07-20T04:55:00;8.4;;;3.5;;
49900;SDS011;35789;48.414;12.768;2023-07-20T05:00:00;8.4;;;3.5;;
49900;SDS011;35789;48.414;12.768;2023-07-20T05:05:00;8.4;;;3.5;;
49900;SDS011;35789;48.414;12.768;2023-07-20T05:10:00;8.1;;;3.1;;
49900;SDS011;35789;48.414;12.768;2023-07-20T05:15:00;8.1;;;3.1;;
49900;SDS011;35789;48.414;12.768;2023-07-20T05:20:00;8.1;;;3.1;;
49900;SDS011;35789;48.414;12.768;2023-07-20T05:25:00;8.1;;;3.1;;
49900;SDS011;35789;48.414;12.768;2023-07-20T05:30:00;8.1;;;3.1;;
49900;SDS011;35789;48.414;12.768;2023-07-20T05:35:00;8.1;;;3.1;;
49900;SDS011;35789;48.414;12.768;2023-07-20T05:40:00;4.6;;;2.3;;
49900;SDS011;35789;48.414;12.768;2023-07-20T05:45:00;4.6;;;2.3;;
49900;SDS011;35789;48.414;12.768;2023-07-20T05:50:00;4.6;;;2.3;;
49900;SDS011;35789;48.414;12.768;2023-07-20T05:55:00;4.6;;;2.3;;
49900;SDS011;35789;48.414;12.768;2023-07-20T06:00:00;4.6;;;2.3;;
49900;SDS011;35789;48.414;12.768;2023-07-20T06:05:00;4.6;;;2.3;;
49900;SDS011;35789;48.414;12.768;2023-07-20T06:10:00;5.8;;;1.7;;
49900;SDS011;35789;48.414;12.768;2023-07-20T06:15:02;5.8;;;1.7;;
49900;SDS011;35789;48.414;12.768;2023-07-20T06:20:00;5.8;;;1.7;;
49900;SDS011;35789;48.414;12.768;2023-07-20T06:25:00;5.8;;;1.7;;
49900;SDS011;35789;48.414;12.768;2023-07-20T06:30:00;5.8;;;1.7;;
49900;SDS011;35789;48.414;12.768;2023-07-20T06:35:00;5.8;;;1.7;;
49900;SDS011;35789;48.414;12.768;2023-07-20T06:40:01;4.0;;;1.7;;
49900;SDS011;35789;48.414;12.768;2023-07-20T06:45:00;4.0;;;1.7;;
49900;SDS011;35789;48.414;12.768;2023-07-20T06:50:00;4.0;;;1.7;;
49900;SDS011;35789;48.414;12.768;2023-07-20T06:55:00;4.0;;;1.7;;
49900;SDS011;35789;48.414;12.768;2023-07-20T07:00:00;4.0;;;1.7;;
49900;SDS011;35789;48.414;12.768;2023-07-20T07:05:00;4.0;;;1.7;;
49900;SDS011;35789;48.414;12.768;2023-07-20T07:10:01;5.2;;;1.8;;
49900;SDS011;35789;48.414;12.768;2023-07-20T07:15:00;5.2;;;1.8;;
49900;SDS011;35789;48.414;12.768;2023-07-20T07:20:00;5.2;;;1.8;;
49900;SDS011;35789;48.414;12.768;2023-07-20T07:25:00;5.2;;;1.8;;
49900;SDS011;35789;48.414;12.768;2023-07-20T07:30:00;5.2;;;1.8;;
49900;SDS011;35789;48.414;12.768;2023-07-20T07:35:00;5.2;;;1.8;;
49900;SDS011;35789;48.414;12.768;2023-07-20T07:40:00;4.1;;;1.7;;
49900;SDS011;35789;48.414;12.768;2023-07-20T07:45:00;4.1;;;1.7;;
49900;SDS011;35789;48.414;12.768;2023-07-20T07:50:00;4.1;;;1.7;;
49900;SDS011;35789;48.414;12.768;2023-07-20T07:55:00;4.1;;;1.7;;
49900;SDS011;35789;48.414;12.768;2023-07-20T08:00:00;4.1;;;1.7;;
49900;SDS011;35789;48.414;12.768;2023-07-20T08:05:00;4.1;;;1.7;;
49900;SDS011;35789;48.414;12.768;2023-07-20T08:10:00;4.1;;;1.7;;
49900;SDS011;35789;48.414;12.768;2023-07-20T08:15:00;4.1;;;1.7;;
49900;SDS011;35789;48.414;12.768;2023-07-20T08:20:00;4.1;;;1.7;;
49900;SDS011;35789;48.414;12.768;2023-07-20T08:25:00;4.1;;;1.7;;
49900;SDS011;35789;48.414;12.768;2023-07-20T08:30:00;4.1;;;1.7;;
49900;SDS011;35789;48.414;12.768;2023-07-20T08:35:00;3.9;;;1.8;;
49900;SDS011;35789;48.414;12.768;2023-07-20T08:40:00;3.9;;;1.8;;
49900;SDS011;35789;48.414;12.768;2023-07-20T08:45:00;3.9;;;1.8;;
49900;SDS011;35789;48.414;12.768;2023-07-20T08:50:01;3.9;;;1.8;;
49900;SDS011;35789;48.414;12.768;2023-07-20T08:55:00;3.9;;;1.8;;
49900;SDS011;35789;48.414;12.768;2023-07-20T09:00:02;3.9;;;1.8;;
49900;SDS011;35789;48.414;12.768;2023-07-20T09:05:00;4.0;;;1.8;;
49900;SDS011;35789;48.414;12.768;2023-07-20T09:10:00;4.0;;;1.8;;
49900;SDS011;35789;48.414;12.768;2023-07-20T09:15:00;4.0;;;1.8;;
49900;SDS011;35789;48.414;12.768;2023-07-20T09:20:02;4.0;;;1.8;;
49900;SDS011;35789;48.414;12.768;2023-07-20T09:25:00;4.0;;;1.8;;
49900;SDS011;35789;48.414;12.768;2023-07-20T09:30:00;4.0;;;1.8;;
49900;SDS011;35789;48.414;12.768;2023-07-20T09:35:00;3.8;;;1.7;;
49900;SDS011;35789;48.414;12.768;2023-07-20T09:40:01;3.8;;;1.7;;
49900;SDS011;35789;48.414;12.768;2023-07-20T09:50:00;3.8;;;1.7;;
49900;SDS011;35789;48.414;12.768;2023-07-20T09:55:01;3.8;;;1.7;;
49900;SDS011;35789;48.414;12.768;2023-07-20T10:00:00;3.8;;;1.7;;
49900;SDS011;35789;48.414;12.768;2023-07-20T10:05:03;5.2;;;1.7;;
49900;SDS011;35789;48.414;12.768;2023-07-20T10:10:01;5.2;;;1.7;;
49900;SDS011;35789;48.414;12.768;2023-07-20T10:15:10;5.2;;;1.7;;
49900;SDS011;35789;48.414;12.768;2023-07-20T10:20:00;5.2;;;1.7;;
49900;SDS011;35789;48.414;12.768;2023-07-20T10:25:01;5.2;;;1.7;;
49900;SDS011;35789;48.414;12.768;2023-07-20T10:30:00;5.2;;;1.7;;
49900;SDS011;35789;48.414;12.768;2023-07-20T10:35:00;4.7;;;1.8;;
49900;SDS011;35789;48.414;12.768;2023-07-20T10:45:00;4.7;;;1.8;;
49900;SDS011;35789;48.414;12.768;2023-07-20T10:50:01;4.7;;;1.8;;
49900;SDS011;35789;48.414;12.768;2023-07-20T10:55:10;4.7;;;1.8;;
49900;SDS011;35789;48.414;12.768;2023-07-20T11:00:08;4.7;;;1.8;;
49900;SDS011;35789;48.414;12.768;2023-07-20T11:05:03;3.7;;;1.5;;
49900;SDS011;35789;48.414;12.768;2023-07-20T11:10:14;3.7;;;1.5;;
49900;SDS011;35789;48.414;12.768;2023-07-20T11:15:00;3.7;;;1.5;;
49900;SDS011;35789;48.414;12.768;2023-07-20T11:20:01;3.7;;;1.5;;
49900;SDS011;35789;48.414;12.768;2023-07-20T11:25:00;3.7;;;1.5;;
49900;SDS011;35789;48.414;12.768;2023-07-20T11:30:00;3.7;;;1.5;;
49900;SDS011;35789;48.414;12.768;2023-07-20T11:35:00;3.8;;;1.8;;
49900;SDS011;35789;48.414;12.768;2023-07-20T11:40:00;3.8;;;1.8;;
49900;SDS011;35789;48.414;12.768;2023-07-20T11:45:02;3.8;;;1.8;;
49900;SDS011;35789;48.414;12.768;2023-07-20T11:50:03;3.8;;;1.8;;
49900;SDS011;35789;48.414;12.768;2023-07-20T11:55:00;3.8;;;1.8;;
49900;SDS011;35789;48.414;12.768;2023-07-20T12:00:02;3.8;;;1.8;;
49900;SDS011;35789;48.414;12.768;2023-07-20T12:05:02;4.1;;;1.8;;
49900;SDS011;35789;48.414;12.768;2023-07-20T12:10:04;4.1;;;1.8;;
49900;SDS011;35789;48.414;12.768;2023-07-20T12:15:12;4.1;;;1.8;;
49900;SDS011;35789;48.414;12.768;2023-07-20T12:20:00;4.1;;;1.8;;
49900;SDS011;35789;48.414;12.768;2023-07-20T12:25:00;4.1;;;1.8;;
49900;SDS011;35789;48.414;12.768;2023-07-20T12:30:00;4.1;;;1.8;;
49900;SDS011;35789;48.414;12.768;2023-07-20T12:35:00;4.6;;;1.8;;
49900;SDS011;35789;48.414;12.768;2023-07-20T12:40:00;4.6;;;1.8;;
49900;SDS011;35789;48.414;12.768;2023-07-20T12:45:00;4.6;;;1.8;;
49900;SDS011;35789;48.414;12.768;2023-07-20T12:50:00;4.6;;;1.8;;
49900;SDS011;35789;48.414;12.768;2023-07-20T12:55:00;4.6;;;1.8;;
49900;SDS011;35789;48.414;12.768;2023-07-20T13:00:00;4.6;;;1.8;;
49900;SDS011;35789;48.414;12.768;2023-07-20T13:05:00;6.1;;;1.9;;
49900;SDS011;35789;48.414;12.768;2023-07-20T13:10:01;6.1;;;1.9;;
49900;SDS011;35789;48.414;12.768;2023-07-20T13:15:02;6.1;;;1.9;;
49900;SDS011;35789;48.414;12.768;2023-07-20T13:20:01;6.1;;;1.9;;
49900;SDS011;35789;48.414;12.768;2023-07-20T13:25:00;6.1;;;1.9;;
49900;SDS011;35789;48.414;12.768;2023-07-20T13:30:00;6.1;;;1.9;;
49900;SDS011;35789;48.414;12.768;2023-07-20T13:35:00;3.8;;;1.7;;
49900;SDS011;35789;48.414;12.768;2023-07-20T13:40:00;3.8;;;1.7;;
49900;SDS011;35789;48.414;12.768;2023-07-20T13:45:00;3.8;;;1.7;;
49900;SDS011;35789;48.414;12.768;2023-07-20T13:50:00;3.8;;;1.7;;
49900;SDS011;35789;48.414;12.768;2023-07-20T13:55:00;3.8;;;1.7;;
49900;SDS011;35789;48.414;12.768;2023-07-20T14:00:00;3.8;;;1.7;;
49900;SDS011;35789;48.414;12.768;2023-07-20T14:05:00;3.9;;;1.6;;
49900;SDS011;35789;48.414;12.768;2023-07-20T14:10:00;3.9;;;1.6;;
49900;SDS011;35789;48.414;12.768;2023-07-20T14:15:00;3.9;;;1.6;;
49900;SDS011;35789;48.414;12.768;2023-07-20T14:20:00;3.9;;;1.6;;
49900;SDS011;35789;48.414;12.768;2023-07-20T14:25:00;3.9;;;1.6;;
49900;SDS011;35789;48.414;12.768;2023-07-20T14:30:00;3.9;;;1.6;;
49900;SDS011;35789;48.414;12.768;2023-07-20T14:35:00;3.8;;;1.6;;
49900;SDS011;35789;48.414;12.768;2023-07-20T14:40:00;3.8;;;1.6;;
49900;SDS011;35789;48.414;12.768;2023-07-20T14:45:00;3.8;;;1.6;;
49900;SDS011;35789;48.414;12.768;2023-07-20T14:50:00;3.8;;;1.6;;
49900;SDS011;35789;48.414;12.768;2023-07-20T14:55:00;3.8;;;1.6;;
49900;SDS011;35789;48.414;12.768;2023-07-20T15:00:00;3.8;;;1.6;;
49900;SDS011;35789;48.414;12.768;2023-07-20T15:05:00;4.1;;;1.6;;
49900;SDS011;35789;48.414;12.768;2023-07-20T15:10:00;4.1;;;1.6;;
49900;SDS011;35789;48.414;12.768;2023-07-20T15:15:03;4.1;;;1.6;;
49900;SDS011;35789;48.414;12.768;2023-07-20T15:20:00;4.1;;;1.6;;
49900;SDS011;35789;48.414;12.768;2023-07-20T15:25:00;4.1;;;1.6;;
49900;SDS011;35789;48.414;12.768;2023-07-20T15:30:00;4.1;;;1.6;;
49900;SDS011;35789;48.414;12.768;2023-07-20T15:35:00;4.1;;;1.6;;
49900;SDS011;35789;48.414;12.768;2023-07-20T15:40:00;4.1;;;1.6;;
49900;SDS011;35789;48.414;12.768;2023-07-20T15:45:00;4.1;;;1.6;;
49900;SDS011;35789;48.414;12.768;2023-07-20T15:50:00;4.1;;;1.6;;
49900;SDS011;35789;48.414;12.768;2023-07-20T15:55:00;4.1;;;1.6;;
49900;SDS011;35789;48.414;12.768;2023-07-20T16:00:00;4.1;;;1.6;;
49900;SDS011;35789;48.414;12.768;2023-07-20T16:05:00;4.5;;;1.4;;
49900;SDS011;35789;48.414;12.768;2023-07-20T16:10:00;4.5;;;1.4;;
49900;SDS011;35789;48.414;12.768;2023-07-20T16:15:00;4.5;;;1.4;;
49900;SDS011;35789;48.414;12.768;2023-07-20T16:20:00;4.5;;;1.4;;
49900;SDS011;35789;48.414;12.768;2023-07-20T16:25:00;4.5;;;1.4;;
49900;SDS011;35789;48.414;12.768;2023-07-20T16:30:00;4.5;;;1.4;;
49900;SDS011;35789;48.414;12.768;2023-07-20T16:35:00;3.9;;;1.6;;
49900;SDS011;35789;48.414;12.768;2023-07-20T16:40:00;3.9;;;1.6;;
49900;SDS011;35789;48.414;12.768;2023-07-20T16:45:00;3.9;;;1.6;;
49900;SDS011;35789;48.414;12.768;2023-07-20T16:50:00;3.9;;;1.6;;
49900;SDS011;35789;48.414;12.768;2023-07-20T16:55:00;3.9;;;1.6;;
49900;SDS011;35789;48.414;12.768;2023-07-20T17:00:00;3.9;;;1.6;;
49900;SDS011;35789;48.414;12.768;2023-07-20T17:05:00;3.6;;;1.6;;
49900;SDS011;35789;48.414;12.768;2023-07-20T17:10:00;3.6;;;1.6;;
49900;SDS011;35789;48.414;12.768;2023-07-20T17:15:00;3.6;;;1.6;;
49900;SDS011;35789;48.414;12.768;2023-07-20T17:20:00;3.6;;;1.6;;
49900;SDS011;35789;48.414;12.768;2023-07-20T17:25:00;3.6;;;1.6;;
49900;SDS011;35789;48.414;12.768;2023-07-20T17:30:00;3.6;;;1.6;;
49900;SDS011;35789;48.414;12.768;2023-07-20T17:35:00;4.2;;;1.8;;
49900;SDS011;35789;48.414;12.768;2023-07-20T17:40:06;4.2;;;1.8;;
49900;SDS011;35789;48.414;12.768;2023-07-20T17:45:00;4.2;;;1.8;;
49900;SDS011;35789;48.414;12.768;2023-07-20T17:50:00;4.2;;;1.8;;
49900;SDS011;35789;48.414;12.768;2023-07-20T17:55:00;4.2;;;1.8;;
49900;SDS011;35789;48.414;12.768;2023-07-20T18:00:00;4.2;;;1.8;;
49900;SDS011;35789;48.414;12.768;2023-07-20T18:05:00;3.3;;;1.4;;
49900;SDS011;35789;48.414;12.768;2023-07-20T18:10:01;3.3;;;1.4;;
49900;SDS011;35789;48.414;12.768;2023-07-20T18:15:00;3.3;;;1.4;;
49900;SDS011;35789;48.414;12.768;2023-07-20T18:20:00;3.3;;;1.4;;
49900;SDS011;35789;48.414;12.768;2023-07-20T18:25:00;3.3;;;1.4;;
49900;SDS011;35789;48.414;12.768;2023-07-20T18:30:00;3.3;;;1.4;;
49900;SDS011;35789;48.414;12.768;2023-07-20T18:35:00;4.8;;;1.6;;
49900;SDS011;35789;48.414;12.768;2023-07-20T18:40:01;4.8;;;1.6;;
49900;SDS011;35789;48.414;12.768;2023-07-20T18:45:00;4.8;;;1.6;;
49900;SDS011;35789;48.414;12.768;2023-07-20T18:50:00;4.8;;;1.6;;
49900;SDS011;35789;48.414;12.768;2023-07-20T18:55:00;4.8;;;1.6;;
49900;SDS011;35789;48.414;12.768;2023-07-20T19:00:00;4.8;;;1.6;;
49900;SDS011;35789;48.414;12.768;2023-07-20T19:05:00;3.9;;;1.4;;
49900;SDS011;35789;48.414;12.768;2023-07-20T19:10:01;3.9;;;1.4;;
49900;SDS011;35789;48.414;12.768;2023-07-20T19:15:00;3.9;;;1.4;;
49900;SDS011;35789;48.414;12.768;2023-07-20T19:20:00;3.9;;;1.4;;
49900;SDS011;35789;48.414;12.768;2023-07-20T19:25:00;3.9;;;1.4;;
49900;SDS011;35789;48.414;12.768;2023-07-20T19:30:00;3.9;;;1.4;;
49900;SDS011;35789;48.414;12.768;2023-07-20T19:35:00;4.2;;;1.5;;
49900;SDS011;35789;48.414;12.768;2023-07-20T19:40:00;4.2;;;1.5;;
49900;SDS011;35789;48.414;12.768;2023-07-20T19:45:00;4.2;;;1.5;;
49900;SDS011;35789;48.414;12.768;2023-07-20T19:50:00;4.2;;;1.5;;
49900;SDS011;35789;48.414;12.768;2023-07-20T19:55:00;4.2;;;1.5;;
49900;SDS011;35789;48.414;12.768;2023-07-20T20:00:00;4.2;;;1.5;;
49900;SDS011;35789;48.414;12.768;2023-07-20T20:05:00;4.9;;;1.6;;
49900;SDS011;35789;48.414;12.768;2023-07-20T20:10:00;4.9;;;1.6;;
49900;SDS011;35789;48.414;12.768;2023-07-20T20:15:00;4.9;;;1.6;;
49900;SDS011;35789;48.414;12.768;2023-07-20T20:20:00;4.9;;;1.6;;
49900;SDS011;35789;48.414;12.768;2023-07-20T20:25:00;4.9;;;1.6;;
49900;SDS011;35789;48.414;12.768;2023-07-20T20:30:00;4.9;;;1.6;;
49900;SDS011;35789;48.414;12.768;2023-07-20T20:35:00;4.0;;;1.7;;
49900;SDS011;35789;48.414;12.768;2023-07-20T20:40:00;4.0;;;1.7;;
49900;SDS011;35789;48.414;12.768;2023-07-20T20:45:00;4.0;;;1.7;;
49900;SDS011;35789;48.414;12.768;2023-07-20T20:50:00;4.0;;;1.7;;
49900;SDS011;35789;48.414;12.768;2023-07-20T20:55:00;4.0;;;1.7;;
49900;SDS011;35789;48.414;12.768;2023-07-20T21:00:00;4.0;;;1.7;;
49900;SDS011;35789;48.414;12.768;2023-07-20T21:05:00;5.4;;;1.7;;
49900;SDS011;35789;48.414;12.768;2023-07-20T21:10:00;5.4;;;1.7;;
49900;SDS011;35789;48.414;12.768;2023-07-20T21:15:00;5.4;;;1.7;;
49900;SDS011;35789;48.414;12.768;2023-07-20T21:20:01;5.4;;;1.7;;
49900;SDS011;35789;48.414;12.768;2023-07-20T21:25:00;5.4;;;1.7;;
49900;SDS011;35789;48.414;12.768;2023-07-20T21:30:01;5.4;;;1.7;;
49900;SDS011;35789;48.414;12.768;2023-07-20T21:35:00;4.5;;;1.9;;
49900;SDS011;35789;48.414;12.768;2023-07-20T21:40:00;4.5;;;1.9;;
49900;SDS011;35789;48.414;12.768;2023-07-20T21:45:00;4.5;;;1.9;;
49900;SDS011;35789;48.414;12.768;2023-07-20T21:50:00;4.5;;;1.9;;
49900;SDS011;35789;48.414;12.768;2023-07-20T21:55:00;4.5;;;1.9;;
49900;SDS011;35789;48.414;12.768;2023-07-20T22:00:00;4.5;;;1.9;;
49900;SDS011;35789;48.414;12.768;2023-07-20T22:05:00;4.2;;;1.8;;
49900;SDS011;35789;48.414;12.768;2023-07-20T22:10:00;4.2;;;1.8;;
49900;SDS011;35789;48.414;12.768;2023-07-20T22:15:00;4.2;;;1.8;;
49900;SDS011;35789;48.414;12.768;2023-07-20T22:20:00;4.2;;;1.8;;
49900;SDS011;35789;48.414;12.768;2023-07-20T22:25:00;4.2;;;1.8;;
49900;SDS011;35789;48.414;12.768;2023-07-20T22:30:00;4.2;;;1.8;;
49900;SDS011;35789;48.414;12.768;2023-07-20T22:35:00;4.0;;;1.6;;
49900;SDS011;35789;48.414;12.768;2023-07-20T22:40:00;4.0;;;1.6;;
49900;SDS011;35789;48.414;12.768;2023-07-20T22:45:01;4.0;;;1.6;;
49900;SDS011;35789;48.414;12.768;2023-07-20T22:50:00;4.0;;;1.6;;
49900;SDS011;35789;48.414;12.768;2023-07-20T22:55:00;4.0;;;1.6;;
49900;SDS011;35789;48.414;12.768;2023-07-20T23:00:00;4.0;;;1.6;;
49900;SDS011;35789;48.414;12.768;2023-07-20T23:05:01;4.2;;;1.8;;
49900;SDS011;35789;48.414;12.768;2023-07-20T23:10:00;4.2;;;1.8;;
49900;SDS011;35789;48.414;12.768;2023-07-20T23:15:00;4.2;;;1.8;;
49900;SDS011;35789;48.414;12.768;2023-07-20T23:20:00;4.2;;;1.8;;
49900;SDS011;35789;48.414;12.768;2023-07-20T23:25:00;4.2;;;1.8;;
49900;SDS011;35789;48.414;12.768;2023-07-20T23:30:00;4.2;;;1.8;;
49900;SDS011;35789;48.414;12.768;2023-07-20T23:35:00;5.8;;;1.8;;
49900;SDS011;35789;48.414;12.768;2023-07-20T23:40:00;5.8;;;1.8;;
49900;SDS011;35789;48.414;12.768;2023-07-20T23:45:00;5.8;;;1.8;;
49900;SDS011;35789;48.414;12.768;2023-07-20T23:50:00;5.8;;;1.8;;
49900;SDS011;35789;48.414;12.768;2023-07-20T23:55:00;5.8;;;1.8;;
